Time;durP1;ratioP1;P1;durP2;ratioP2;P2;SDS_P1;SDS_P2;PMS_P1;PMS_P2;Temp;Humidity;BMP_temperature;BMP_pressure;BME280_temperature;BME280_humidity;BME280_pressure;Samples;Min_cycle;Max_cycle;Signal;HPM_P1;HPM_P2
2023/03/12 00:01:21;;;;;;;;;;;3.20;99.90;;;;;;8383470;28;20372;-71
2023/03/12 00:05:24;;;;;;;;;;;3.30;99.90;;;;;;8367862;28;19985;-70
2023/03/12 00:09:26;;;;;;;;;;;3.30;99.90;;;;;;8377109;28;20376;-70
2023/03/12 00:13:27;;;;;;;;;;;3.30;99.90;;;;;;8385266;28;20356;-70
2023/03/12 00:17:29;;;;;;;;;;;3.20;99.90;;;;;;8378167;28;20031;-70
2023/03/12 00:21:31;;;;;;;;;;;3.20;99.90;;;;;;8357911;28;20051;-70
2023/03/12 00:25:32;;;;;;;;;;;3.20;99.90;;;;;;8362674;28;19925;-69
2023/03/12 00:34:43;;;;;;;;;;;3.30;99.90;;;;;;8367404;28;19935;-70
2023/03/12 00:38:45;;;;;;;;;;;3.30;99.90;;;;;;8389399;28;19924;-70
2023/03/12 00:42:46;;;;;;;;;;;3.30;99.90;;;;;;8377890;28;19967;-70
2023/03/12 00:46:48;;;;;;;;;;;3.40;99.90;;;;;;8394780;28;19931;-70
2023/03/12 00:50:50;;;;;;;;;;;3.40;99.90;;;;;;8390849;28;19928;-70
2023/03/12 00:54:51;;;;;;;;;;;3.30;99.90;;;;;;8398683;28;19979;-70
2023/03/12 00:58:53;;;;;;;;;;;3.30;99.90;;;;;;8396664;28;19939;-70
2023/03/12 01:02:55;;;;;;;;;;;3.30;99.90;;;;;;8385787;28;19928;-70
2023/03/12 01:06:57;;;;;;;;;;;3.30;99.90;;;;;;8393166;28;19967;-70
2023/03/12 01:10:58;;;;;;;;;;;3.30;99.90;;;;;;8396372;28;19976;-70
2023/03/12 01:15:00;;;;;;;;;;;3.30;99.90;;;;;;8396677;28;19979;-70
2023/03/12 01:19:02;;;;;;;;;;;3.30;99.90;;;;;;8391490;28;19947;-70
2023/03/12 01:23:04;;;;;;;;;;;3.30;99.90;;;;;;8370536;28;19977;-70
2023/03/12 01:27:05;;;;;;;;;;;3.30;99.90;;;;;;8397028;28;19933;-70
2023/03/12 01:31:08;;;;;;;;;;;3.30;99.90;;;;;;8388491;28;20360;-70
2023/03/12 01:35:09;;;;;;;;;;;3.30;99.90;;;;;;8353612;28;19960;-70
2023/03/12 01:39:11;;;;;;;;;;;3.40;99.90;;;;;;8353364;28;20726;-70
2023/03/12 01:43:25;;;;;;;;;;;3.40;99.90;;;;;;8350988;28;20024;-70
2023/03/12 01:47:28;;;;;;;;;;;3.40;99.90;;;;;;8354335;28;19925;-70
2023/03/12 02:06:45;;;;;;;;;;;3.40;99.90;;;;;;8356176;28;20380;-70
2023/03/12 02:10:47;;;;;;;;;;;3.40;99.90;;;;;;8348689;28;20369;-70
2023/03/12 02:14:48;;;;;;;;;;;3.40;99.90;;;;;;8354669;28;19925;-70
2023/03/12 02:18:51;;;;;;;;;;;3.40;99.90;;;;;;8352373;28;19976;-70
2023/03/12 02:22:58;;;;;;;;;;;3.40;99.90;;;;;;8383712;28;19979;-70
2023/03/12 02:27:01;;;;;;;;;;;3.40;99.90;;;;;;8352898;28;20341;-70
2023/03/12 02:31:03;;;;;;;;;;;3.40;99.90;;;;;;8353766;28;19968;-70
2023/03/12 02:35:05;;;;;;;;;;;3.40;99.90;;;;;;8381751;28;19928;-70
2023/03/12 02:39:08;;;;;;;;;;;3.40;99.90;;;;;;8368886;28;20343;-70
2023/03/12 02:43:10;;;;;;;;;;;3.40;99.90;;;;;;8379728;28;19929;-70
2023/03/12 02:47:11;;;;;;;;;;;3.50;99.90;;;;;;8385371;28;19924;-70
2023/03/12 02:51:13;;;;;;;;;;;3.50;99.90;;;;;;8386735;28;19932;-70
2023/03/12 02:55:15;;;;;;;;;;;3.50;99.90;;;;;;8388296;28;19975;-70
2023/03/12 02:59:19;;;;;;;;;;;3.50;99.90;;;;;;8390580;28;19928;-70
2023/03/12 03:03:21;;;;;;;;;;;3.50;99.90;;;;;;8356465;28;19929;-70
2023/03/12 03:07:22;;;;;;;;;;;3.40;99.90;;;;;;8386027;28;19974;-69
2023/03/12 03:11:24;;;;;;;;;;;3.40;99.90;;;;;;8389986;28;19932;-70
2023/03/12 03:15:26;;;;;;;;;;;3.40;99.90;;;;;;8378463;28;20019;-70
2023/03/12 03:19:28;;;;;;;;;;;3.40;99.90;;;;;;8365083;28;19924;-70
2023/03/12 03:23:29;;;;;;;;;;;3.40;99.90;;;;;;8378315;28;20304;-70
2023/03/12 03:27:31;;;;;;;;;;;3.40;99.90;;;;;;8382435;28;19939;-70
2023/03/12 03:31:33;;;;;;;;;;;3.40;99.90;;;;;;8389315;28;19924;-70
2023/03/12 03:35:34;;;;;;;;;;;3.40;99.90;;;;;;8384469;28;20395;-70
2023/03/12 03:39:36;;;;;;;;;;;3.40;99.90;;;;;;8388499;28;19924;-70
2023/03/12 03:43:38;;;;;;;;;;;3.50;99.90;;;;;;8382270;28;20618;-70
2023/03/12 03:47:39;;;;;;;;;;;3.50;99.90;;;;;;8367564;28;19931;-70
2023/03/12 03:51:41;;;;;;;;;;;3.50;99.90;;;;;;8397058;28;19976;-70
2023/03/12 03:55:43;;;;;;;;;;;3.50;99.90;;;;;;8386050;28;19969;-70
2023/03/12 03:59:44;;;;;;;;;;;3.50;99.90;;;;;;8385459;28;19925;-70
2023/03/12 04:03:46;;;;;;;;;;;3.50;99.90;;;;;;8379122;28;20020;-70
2023/03/12 04:07:48;;;;;;;;;;;3.50;99.90;;;;;;8383930;28;19933;-70
2023/03/12 04:11:49;;;;;;;;;;;3.60;99.90;;;;;;8391590;28;19925;-70
2023/03/12 04:15:52;;;;;;;;;;;3.50;99.90;;;;;;8381040;28;20356;-70
2023/03/12 04:19:53;;;;;;;;;;;3.50;99.90;;;;;;8379117;28;19928;-70
2023/03/12 04:23:55;;;;;;;;;;;3.50;99.90;;;;;;8379367;28;20338;-70
2023/03/12 04:27:57;;;;;;;;;;;3.50;99.90;;;;;;8386633;28;19946;-70
2023/03/12 04:31:58;;;;;;;;;;;3.50;99.90;;;;;;8382492;28;19928;-70
2023/03/12 04:36:00;;;;;;;;;;;3.50;99.90;;;;;;8390250;28;20368;-70
2023/03/12 04:40:04;;;;;;;;;;;3.50;99.90;;;;;;8382714;28;19928;-70
2023/03/12 04:44:06;;;;;;;;;;;3.50;99.90;;;;;;8366770;28;19925;-70
2023/03/12 04:48:08;;;;;;;;;;;3.50;99.90;;;;;;8384566;28;19925;-70
2023/03/12 04:52:09;;;;;;;;;;;3.50;99.90;;;;;;8388860;28;19931;-70
2023/03/12 04:56:11;;;;;;;;;;;3.50;99.90;;;;;;8383873;28;20304;-70
2023/03/12 05:00:13;;;;;;;;;;;3.50;99.90;;;;;;8387656;28;19924;-70
2023/03/12 05:04:14;;;;;;;;;;;3.50;99.90;;;;;;8360914;28;19925;-71
2023/03/12 05:08:16;;;;;;;;;;;3.50;99.90;;;;;;8387220;28;20360;-70
2023/03/12 05:12:18;;;;;;;;;;;3.50;99.90;;;;;;8393878;28;19939;-70
2023/03/12 05:16:19;;;;;;;;;;;3.50;99.90;;;;;;8378412;28;20416;-70
2023/03/12 05:20:21;;;;;;;;;;;3.50;99.90;;;;;;8379543;28;19934;-70
2023/03/12 05:24:23;;;;;;;;;;;3.50;99.90;;;;;;8373130;28;19924;-70
2023/03/12 05:28:27;;;;;;;;;;;3.60;99.90;;;;;;8385014;28;19972;-70
2023/03/12 05:32:28;;;;;;;;;;;3.60;99.90;;;;;;8383100;28;19928;-70
2023/03/12 05:36:30;;;;;;;;;;;3.60;99.90;;;;;;8388003;28;20288;-70
2023/03/12 05:40:32;;;;;;;;;;;3.60;99.90;;;;;;8384570;28;19928;-70
2023/03/12 05:44:34;;;;;;;;;;;3.60;99.90;;;;;;8388217;28;20027;-70
2023/03/12 05:48:35;;;;;;;;;;;3.60;99.90;;;;;;8397448;28;20292;-70
2023/03/12 05:52:37;;;;;;;;;;;3.70;99.90;;;;;;8372631;28;19928;-70
2023/03/12 05:56:39;;;;;;;;;;;3.70;99.90;;;;;;8381868;28;20333;-70
2023/03/12 06:00:41;;;;;;;;;;;3.70;99.90;;;;;;8372801;28;20463;-70
2023/03/12 06:04:42;;;;;;;;;;;3.70;99.90;;;;;;8352859;28;19924;-70
2023/03/12 06:08:44;;;;;;;;;;;3.70;99.90;;;;;;8402587;28;20291;-70
2023/03/12 06:12:46;;;;;;;;;;;3.70;99.90;;;;;;8372972;28;19932;-70
2023/03/12 06:16:47;;;;;;;;;;;3.70;99.90;;;;;;8377689;28;19925;-70
2023/03/12 06:20:49;;;;;;;;;;;3.60;99.90;;;;;;8376525;28;19924;-70
2023/03/12 06:24:51;;;;;;;;;;;3.60;99.90;;;;;;8381454;28;19928;-70
2023/03/12 06:28:53;;;;;;;;;;;3.60;99.90;;;;;;8382216;28;19939;-70
2023/03/12 06:32:54;;;;;;;;;;;3.60;99.90;;;;;;8400794;28;19938;-70
2023/03/12 06:36:56;;;;;;;;;;;3.50;99.90;;;;;;8382245;28;20053;-70
2023/03/12 06:40:59;;;;;;;;;;;3.50;99.90;;;;;;8384393;28;19943;-71
2023/03/12 06:45:01;;;;;;;;;;;3.50;99.90;;;;;;8389139;28;19960;-70
2023/03/12 06:49:02;;;;;;;;;;;3.50;99.90;;;;;;8378448;28;19964;-70
2023/03/12 06:53:04;;;;;;;;;;;3.50;99.90;;;;;;8362727;28;20292;-70
2023/03/12 06:57:06;;;;;;;;;;;3.50;99.90;;;;;;8383890;28;19925;-70
2023/03/12 07:01:08;;;;;;;;;;;3.50;99.90;;;;;;8385350;28;19932;-70
2023/03/12 07:05:09;;;;;;;;;;;3.50;99.90;;;;;;8391196;28;19925;-70
2023/03/12 07:09:11;;;;;;;;;;;3.50;99.90;;;;;;8385421;28;19924;-70
2023/03/12 07:13:13;;;;;;;;;;;3.50;99.90;;;;;;8391765;28;19935;-70
2023/03/12 07:17:15;;;;;;;;;;;3.50;99.90;;;;;;8359426;28;19925;-70
2023/03/12 07:21:21;;;;;;;;;;;3.60;99.90;;;;;;8391536;28;19924;-70
2023/03/12 07:35:30;;;;;;;;;;;3.60;99.90;;;;;;8365154;28;19934;-70
2023/03/12 07:39:31;;;;;;;;;;;3.60;99.90;;;;;;8382218;28;19929;-70
2023/03/12 07:43:33;;;;;;;;;;;3.60;99.90;;;;;;8380798;28;19924;-70
2023/03/12 07:47:35;;;;;;;;;;;3.60;99.90;;;;;;8384722;28;19928;-70
2023/03/12 07:51:37;;;;;;;;;;;3.60;99.90;;;;;;8391731;28;19958;-70
2023/03/12 07:55:38;;;;;;;;;;;3.70;99.90;;;;;;8373638;28;19932;-70
2023/03/12 07:59:40;;;;;;;;;;;3.70;99.90;;;;;;8372380;28;20011;-70
2023/03/12 08:03:42;;;;;;;;;;;3.80;99.90;;;;;;8395055;28;20629;-70
2023/03/12 08:07:44;;;;;;;;;;;3.80;99.90;;;;;;8373791;28;20337;-70
2023/03/12 08:11:45;;;;;;;;;;;3.90;99.90;;;;;;8386935;28;19924;-70
2023/03/12 08:15:47;;;;;;;;;;;3.90;99.90;;;;;;8386511;28;19925;-70
2023/03/12 08:19:49;;;;;;;;;;;3.90;99.90;;;;;;8385712;28;19957;-70
2023/03/12 08:23:50;;;;;;;;;;;4.00;99.90;;;;;;8382109;28;19935;-70
2023/03/12 08:27:52;;;;;;;;;;;4.00;99.90;;;;;;8370877;28;19924;-70
2023/03/12 08:31:54;;;;;;;;;;;4.10;99.90;;;;;;8385110;28;19929;-70
2023/03/12 08:36:05;;;;;;;;;;;4.10;99.90;;;;;;8383971;28;19990;-70
2023/03/12 08:40:11;;;;;;;;;;;4.20;99.90;;;;;;8380433;28;20359;-70
2023/03/12 08:44:13;;;;;;;;;;;4.30;99.90;;;;;;8378358;28;19933;-70
2023/03/12 08:48:15;;;;;;;;;;;4.30;99.90;;;;;;8388597;28;19928;-70
2023/03/12 08:52:17;;;;;;;;;;;4.40;99.90;;;;;;8388499;28;20400;-70
2023/03/12 08:56:18;;;;;;;;;;;4.50;99.90;;;;;;8385463;28;19925;-70
2023/03/12 09:00:20;;;;;;;;;;;4.50;99.90;;;;;;8384921;28;19931;-70
2023/03/12 09:04:22;;;;;;;;;;;4.60;99.90;;;;;;8393078;28;19968;-70
2023/03/12 09:08:23;;;;;;;;;;;4.70;99.90;;;;;;8392350;28;19928;-70
2023/03/12 09:12:25;;;;;;;;;;;4.80;99.90;;;;;;8372609;28;19924;-70
2023/03/12 09:16:27;;;;;;;;;;;5.00;99.90;;;;;;8389079;28;19940;-70
2023/03/12 09:20:29;;;;;;;;;;;5.00;99.90;;;;;;8393892;28;19933;-70
2023/03/12 09:24:30;;;;;;;;;;;5.10;99.90;;;;;;8387328;28;19931;-70
2023/03/12 09:28:32;;;;;;;;;;;5.20;99.90;;;;;;8400969;28;20365;-70
2023/03/12 09:32:34;;;;;;;;;;;5.30;99.90;;;;;;8389307;28;19925;-70
2023/03/12 09:36:35;;;;;;;;;;;5.40;99.90;;;;;;8390090;28;19932;-70
2023/03/12 09:40:38;;;;;;;;;;;5.60;99.90;;;;;;8383962;28;19933;-70
2023/03/12 09:44:43;;;;;;;;;;;5.60;99.90;;;;;;8386179;28;19960;-70
2023/03/12 09:48:44;;;;;;;;;;;5.70;99.90;;;;;;8391454;28;19931;-70
2023/03/12 09:52:57;;;;;;;;;;;5.80;99.90;;;;;;8384989;28;20074;-70
2023/03/12 09:57:01;;;;;;;;;;;6.00;99.90;;;;;;8382542;28;19931;-70
2023/03/12 10:01:14;;;;;;;;;;;6.10;99.90;;;;;;8390554;28;19925;-70
2023/03/12 10:05:19;;;;;;;;;;;6.20;99.90;;;;;;8382500;28;19924;-70
2023/03/12 10:09:30;;;;;;;;;;;6.30;99.90;;;;;;8385615;28;20533;-70
2023/03/12 10:13:38;;;;;;;;;;;6.40;99.90;;;;;;8385370;28;19932;-70
2023/03/12 10:17:57;;;;;;;;;;;6.60;99.90;;;;;;8363177;28;19932;-70
2023/03/12 10:22:17;;;;;;;;;;;6.70;99.90;;;;;;8395888;28;19936;-70
2023/03/12 10:26:30;;;;;;;;;;;6.80;99.90;;;;;;8385301;28;19936;-70
2023/03/12 10:30:32;;;;;;;;;;;7.00;99.90;;;;;;8383201;28;19924;-71
2023/03/12 10:34:49;;;;;;;;;;;7.20;99.90;;;;;;8366784;28;19979;-70
2023/03/12 10:38:50;;;;;;;;;;;7.40;99.90;;;;;;8384141;28;19967;-70
2023/03/12 10:42:52;;;;;;;;;;;7.60;99.90;;;;;;8387493;28;19924;-70
2023/03/12 10:47:00;;;;;;;;;;;7.80;99.90;;;;;;8381701;28;20375;-70
2023/03/12 10:51:03;;;;;;;;;;;8.00;99.90;;;;;;8381617;28;19932;-70
2023/03/12 10:55:20;;;;;;;;;;;8.20;99.90;;;;;;8371274;28;20028;-70
2023/03/12 10:59:25;;;;;;;;;;;8.40;99.90;;;;;;8377179;28;20628;-70
2023/03/12 11:03:28;;;;;;;;;;;8.60;99.90;;;;;;8384984;28;19924;-70
2023/03/12 11:07:34;;;;;;;;;;;8.60;99.90;;;;;;8379098;28;19924;-70
2023/03/12 11:11:36;;;;;;;;;;;8.70;99.90;;;;;;8368248;28;19928;-70
2023/03/12 11:20:41;;;;;;;;;;;8.90;99.90;;;;;;8383617;28;19919;-70
2023/03/12 11:24:59;;;;;;;;;;;8.90;99.90;;;;;;8390890;28;20368;-70
2023/03/12 11:29:03;;;;;;;;;;;9.00;99.90;;;;;;8384091;28;19935;-71
2023/03/12 11:33:05;;;;;;;;;;;9.10;99.90;;;;;;8372643;28;20043;-70
2023/03/12 11:37:11;;;;;;;;;;;9.20;99.90;;;;;;8383120;28;19939;-70
2023/03/12 11:41:12;;;;;;;;;;;9.20;99.90;;;;;;8357175;28;19924;-70
2023/03/12 11:45:14;;;;;;;;;;;9.30;99.90;;;;;;8356076;28;20378;-70
2023/03/12 11:49:26;;;;;;;;;;;9.30;99.90;;;;;;8344556;28;19935;-70
2023/03/12 11:53:33;;;;;;;;;;;9.30;99.90;;;;;;8368256;28;20685;-70
2023/03/12 11:57:49;;;;;;;;;;;9.40;99.90;;;;;;8358537;28;19968;-70
2023/03/12 12:01:57;;;;;;;;;;;9.50;99.90;;;;;;8361397;28;19979;-70
2023/03/12 12:05:59;;;;;;;;;;;9.60;99.90;;;;;;8343161;28;19955;-70
2023/03/12 12:10:07;;;;;;;;;;;9.60;99.90;;;;;;8357611;28;19971;-70
2023/03/12 12:14:23;;;;;;;;;;;9.60;99.90;;;;;;8359431;28;20023;-70
2023/03/12 12:18:37;;;;;;;;;;;9.60;99.90;;;;;;8355401;28;19933;-70
2023/03/12 12:22:48;;;;;;;;;;;9.70;99.90;;;;;;8355162;28;19925;-70
2023/03/12 12:27:08;;;;;;;;;;;9.80;99.90;;;;;;8353416;28;19935;-70
2023/03/12 12:31:16;;;;;;;;;;;9.80;99.90;;;;;;8354073;28;19925;-70
2023/03/12 12:35:23;;;;;;;;;;;9.90;99.90;;;;;;8354769;28;19947;-70
2023/03/12 12:39:31;;;;;;;;;;;10.00;99.90;;;;;;8367681;28;20019;-70
2023/03/12 12:43:38;;;;;;;;;;;10.00;99.90;;;;;;8368394;28;20033;-70
2023/03/12 12:47:46;;;;;;;;;;;10.00;99.90;;;;;;8350308;28;19939;-70
2023/03/12 12:51:51;;;;;;;;;;;10.00;99.90;;;;;;8372530;28;19935;-70
2023/03/12 12:55:56;;;;;;;;;;;10.00;99.90;;;;;;8359909;28;19928;-70
2023/03/12 13:00:16;;;;;;;;;;;10.10;99.90;;;;;;8366587;28;20015;-70
2023/03/12 13:04:27;;;;;;;;;;;10.20;99.90;;;;;;8361596;28;20373;-70
2023/03/12 13:08:38;;;;;;;;;;;10.40;99.90;;;;;;8358785;28;19936;-70
2023/03/12 13:12:45;;;;;;;;;;;10.60;99.90;;;;;;8371568;28;19925;-70
2023/03/12 13:16:47;;;;;;;;;;;10.80;99.90;;;;;;8370472;28;19946;-70
2023/03/12 13:20:52;;;;;;;;;;;10.80;99.90;;;;;;8371616;28;20012;-70
2023/03/12 13:24:56;;;;;;;;;;;10.70;99.90;;;;;;8365910;28;19925;-70
2023/03/12 13:29:10;;;;;;;;;;;10.60;99.90;;;;;;8363449;28;19938;-70
2023/03/12 13:33:15;;;;;;;;;;;10.60;99.90;;;;;;8358352;28;19933;-70
2023/03/12 13:37:27;;;;;;;;;;;10.70;99.90;;;;;;8362707;28;20426;-70
2023/03/12 13:41:45;;;;;;;;;;;10.70;99.90;;;;;;8361817;28;19925;-70
2023/03/12 13:45:52;;;;;;;;;;;10.80;99.90;;;;;;8361307;28;19960;-69
2023/03/12 13:50:04;;;;;;;;;;;10.90;99.90;;;;;;8360131;28;20064;-69
2023/03/12 13:54:13;;;;;;;;;;;11.20;99.90;;;;;;8359066;28;20027;-70
2023/03/12 13:58:20;;;;;;;;;;;11.40;99.90;;;;;;8360974;28;19925;-70
2023/03/12 14:02:27;;;;;;;;;;;11.80;99.90;;;;;;8361462;28;23135;-70
2023/03/12 14:06:31;;;;;;;;;;;12.10;99.90;;;;;;8343521;28;19964;-70
2023/03/12 14:10:45;;;;;;;;;;;12.30;99.90;;;;;;8355571;28;19986;-70
2023/03/12 14:14:56;;;;;;;;;;;12.50;99.90;;;;;;8361499;28;19956;-70
2023/03/12 14:18:58;;;;;;;;;;;12.60;99.90;;;;;;8357392;28;20373;-70
2023/03/12 14:23:03;;;;;;;;;;;12.60;99.90;;;;;;8356112;28;19931;-70
2023/03/12 14:27:05;;;;;;;;;;;12.60;99.90;;;;;;8343305;28;20440;-70
2023/03/12 14:31:13;;;;;;;;;;;12.60;99.90;;;;;;8342360;28;19933;-70
2023/03/12 14:35:32;;;;;;;;;;;12.90;99.90;;;;;;8377281;28;19924;-70
2023/03/12 14:39:49;;;;;;;;;;;13.30;99.90;;;;;;8343846;28;19990;-70
2023/03/12 14:43:52;;;;;;;;;;;13.50;99.90;;;;;;8363275;28;19925;-70
2023/03/12 14:47:55;;;;;;;;;;;13.30;99.90;;;;;;8359127;28;20388;-70
2023/03/12 14:51:57;;;;;;;;;;;13.40;99.90;;;;;;8360314;28;20033;-70
2023/03/12 14:56:04;;;;;;;;;;;13.50;99.90;;;;;;8362605;28;19935;-70
2023/03/12 15:00:13;;;;;;;;;;;13.40;99.90;;;;;;8359900;28;20155;-70
2023/03/12 15:04:22;;;;;;;;;;;13.30;99.90;;;;;;8356690;28;20028;-70
2023/03/12 15:08:23;;;;;;;;;;;13.20;99.90;;;;;;8359580;28;20002;-70
2023/03/12 15:12:28;;;;;;;;;;;13.30;99.90;;;;;;8366391;28;20343;-70
2023/03/12 15:16:29;;;;;;;;;;;13.40;99.90;;;;;;8365634;28;20015;-70
2023/03/12 15:20:31;;;;;;;;;;;13.40;99.90;;;;;;8359744;28;19932;-70
2023/03/12 15:24:36;;;;;;;;;;;13.50;99.90;;;;;;8351323;28;20006;-70
2023/03/12 15:28:38;;;;;;;;;;;13.60;99.90;;;;;;8360588;28;19976;-70
2023/03/12 15:32:39;;;;;;;;;;;13.40;99.90;;;;;;8374016;28;19929;-70
2023/03/12 15:36:48;;;;;;;;;;;13.10;99.90;;;;;;8368821;28;19982;-70
2023/03/12 15:40:52;;;;;;;;;;;12.80;99.90;;;;;;8359100;28;20348;-70
2023/03/12 15:44:58;;;;;;;;;;;12.70;99.90;;;;;;8366024;28;19925;-70
2023/03/12 15:49:00;;;;;;;;;;;12.50;99.90;;;;;;8364534;28;20395;-70
2023/03/12 15:53:04;;;;;;;;;;;12.40;99.90;;;;;;8365086;28;19971;-70
2023/03/12 15:57:11;;;;;;;;;;;12.20;99.90;;;;;;8364281;28;20020;-70
2023/03/12 16:01:14;;;;;;;;;;;12.00;99.90;;;;;;8367982;28;19947;-70
2023/03/12 16:05:16;;;;;;;;;;;11.80;99.90;;;;;;8354500;28;19924;-70
2023/03/12 16:09:27;;;;;;;;;;;11.70;99.90;;;;;;8357973;28;19928;-70
2023/03/12 16:13:32;;;;;;;;;;;11.60;99.90;;;;;;8357844;28;19926;-70
2023/03/12 16:17:34;;;;;;;;;;;11.50;99.90;;;;;;8337074;28;19925;-71
2023/03/12 16:21:35;;;;;;;;;;;11.50;99.90;;;;;;8338663;28;20280;-71
2023/03/12 16:25:37;;;;;;;;;;;11.50;99.90;;;;;;8355632;28;19929;-71
2023/03/12 16:29:39;;;;;;;;;;;11.50;99.90;;;;;;8355588;28;19931;-71
2023/03/12 16:33:42;;;;;;;;;;;11.40;99.90;;;;;;8352765;28;19929;-72
2023/03/12 16:37:45;;;;;;;;;;;11.40;99.90;;;;;;8351998;28;19933;-71
2023/03/12 16:41:46;;;;;;;;;;;11.30;99.90;;;;;;8338601;28;19935;-71
2023/03/12 16:45:49;;;;;;;;;;;11.20;99.90;;;;;;8354161;28;20296;-71
2023/03/12 16:49:51;;;;;;;;;;;11.20;99.90;;;;;;8338992;28;19936;-71
2023/03/12 16:53:53;;;;;;;;;;;11.10;99.90;;;;;;8355370;28;20386;-71
2023/03/12 16:58:10;;;;;;;;;;;11.10;99.90;;;;;;8355980;28;20266;-71
2023/03/12 17:02:15;;;;;;;;;;;11.00;99.90;;;;;;8360237;28;19924;-71
2023/03/12 17:06:19;;;;;;;;;;;10.90;99.90;;;;;;8369252;28;20440;-71
2023/03/12 17:10:21;;;;;;;;;;;10.90;99.90;;;;;;8352801;28;19929;-71
2023/03/12 17:14:23;;;;;;;;;;;10.80;99.90;;;;;;8357435;28;19967;-71
2023/03/12 17:18:25;;;;;;;;;;;10.70;99.90;;;;;;8350390;28;19959;-71
2023/03/12 17:22:27;;;;;;;;;;;10.70;99.90;;;;;;8336258;28;20027;-71
2023/03/12 17:26:28;;;;;;;;;;;10.60;99.90;;;;;;8360574;28;19978;-71
2023/03/12 17:30:30;;;;;;;;;;;10.50;99.90;;;;;;8342973;28;19937;-71
2023/03/12 17:34:32;;;;;;;;;;;10.50;99.90;;;;;;8337827;28;20057;-71
2023/03/12 17:38:34;;;;;;;;;;;10.40;99.90;;;;;;8355682;28;20424;-71
2023/03/12 17:42:36;;;;;;;;;;;10.40;99.90;;;;;;8343040;28;19932;-71
2023/03/12 17:46:38;;;;;;;;;;;10.30;99.90;;;;;;8362506;28;19928;-71
2023/03/12 17:55:30;;;;;;;;;;;10.30;99.90;;;;;;8360772;28;19935;-71
2023/03/12 17:59:32;;;;;;;;;;;10.20;99.90;;;;;;8360357;28;19999;-71
2023/03/12 18:03:33;;;;;;;;;;;10.20;99.90;;;;;;8361955;28;20023;-71
2023/03/12 18:07:36;;;;;;;;;;;10.30;99.90;;;;;;8358408;28;20036;-71
2023/03/12 18:11:37;;;;;;;;;;;10.30;99.90;;;;;;8357565;28;20384;-71
2023/03/12 18:15:40;;;;;;;;;;;10.30;99.90;;;;;;8358210;28;19951;-72
2023/03/12 18:19:41;;;;;;;;;;;10.30;99.90;;;;;;8353324;28;19931;-71
2023/03/12 18:23:44;;;;;;;;;;;10.40;99.90;;;;;;8357725;28;19932;-71
2023/03/12 18:27:46;;;;;;;;;;;10.40;99.90;;;;;;8346961;28;20603;-71
2023/03/12 18:31:48;;;;;;;;;;;10.40;99.90;;;;;;8359078;28;20424;-71
2023/03/12 18:35:50;;;;;;;;;;;10.40;99.90;;;;;;8354819;28;20371;-71
2023/03/12 18:39:54;;;;;;;;;;;10.40;99.90;;;;;;8354716;28;20423;-71
2023/03/12 18:43:56;;;;;;;;;;;10.40;99.90;;;;;;8357690;28;20389;-71
2023/03/12 18:47:58;;;;;;;;;;;10.30;99.90;;;;;;8355455;28;19928;-71
2023/03/12 18:51:59;;;;;;;;;;;10.40;99.90;;;;;;8358330;28;19964;-71
2023/03/12 18:56:01;;;;;;;;;;;10.30;99.90;;;;;;8341994;28;20142;-71
2023/03/12 19:00:05;;;;;;;;;;;10.30;99.90;;;;;;8352444;28;19928;-71
2023/03/12 19:04:07;;;;;;;;;;;10.30;99.90;;;;;;8352361;28;24180;-71
2023/03/12 19:13:12;;;;;;;;;;;10.30;99.90;;;;;;8350952;28;19931;-71
2023/03/12 19:17:14;;;;;;;;;;;10.20;99.90;;;;;;8367387;28;19925;-71
2023/03/12 19:21:16;;;;;;;;;;;10.30;99.90;;;;;;8360518;28;20292;-71
2023/03/12 19:25:19;;;;;;;;;;;10.30;99.90;;;;;;8347653;28;19928;-71
2023/03/12 19:29:20;;;;;;;;;;;10.30;99.90;;;;;;8335606;28;20020;-71
2023/03/12 19:33:22;;;;;;;;;;;10.30;99.90;;;;;;8350210;28;19967;-72
2023/03/12 19:37:24;;;;;;;;;;;10.30;99.90;;;;;;8352119;28;19925;-71
2023/03/12 19:41:25;;;;;;;;;;;10.30;99.90;;;;;;8357741;28;19936;-71
2023/03/12 19:45:27;;;;;;;;;;;10.30;99.90;;;;;;8354898;28;20044;-72
2023/03/12 19:49:29;;;;;;;;;;;10.30;99.90;;;;;;8351312;28;19928;-71
2023/03/12 19:53:31;;;;;;;;;;;10.30;99.90;;;;;;8352932;28;20002;-71
2023/03/12 19:57:33;;;;;;;;;;;10.20;99.90;;;;;;8349475;28;19932;-71
2023/03/12 20:01:34;;;;;;;;;;;10.20;99.90;;;;;;8350370;28;19975;-71
2023/03/12 20:05:36;;;;;;;;;;;10.20;99.90;;;;;;8352175;28;19939;-71
2023/03/12 20:09:38;;;;;;;;;;;10.20;99.90;;;;;;8345794;28;19932;-72
2023/03/12 20:13:39;;;;;;;;;;;10.20;99.90;;;;;;8353396;28;20019;-71
2023/03/12 20:17:41;;;;;;;;;;;10.20;99.90;;;;;;8338927;28;19925;-72
2023/03/12 20:21:43;;;;;;;;;;;10.20;99.90;;;;;;8340275;28;19928;-71
2023/03/12 20:25:47;;;;;;;;;;;10.20;99.90;;;;;;8368073;28;19932;-71
2023/03/12 20:29:49;;;;;;;;;;;10.20;99.90;;;;;;8363461;28;19939;-71
2023/03/12 20:33:51;;;;;;;;;;;10.20;99.90;;;;;;8365181;28;19928;-71
2023/03/12 20:37:53;;;;;;;;;;;10.20;99.90;;;;;;8364899;28;20046;-71
2023/03/12 20:41:54;;;;;;;;;;;10.20;99.90;;;;;;8359063;28;20544;-71
2023/03/12 20:45:56;;;;;;;;;;;10.20;99.90;;;;;;8351432;28;19935;-72
2023/03/12 20:50:00;;;;;;;;;;;10.20;99.90;;;;;;8332675;28;19951;-71
2023/03/12 20:54:02;;;;;;;;;;;10.20;99.90;;;;;;8350357;28;20023;-72
2023/03/12 20:58:03;;;;;;;;;;;10.20;99.90;;;;;;8356267;28;20288;-71
2023/03/12 21:02:05;;;;;;;;;;;10.20;99.90;;;;;;8353232;28;19936;-71
2023/03/12 21:06:07;;;;;;;;;;;10.20;99.90;;;;;;8364104;28;20373;-71
2023/03/12 21:10:09;;;;;;;;;;;10.20;99.90;;;;;;8372911;28;19987;-71
2023/03/12 21:14:10;;;;;;;;;;;10.20;99.90;;;;;;8359547;28;19940;-71
2023/03/12 21:18:12;;;;;;;;;;;10.20;99.90;;;;;;8357832;28;20019;-71
2023/03/12 21:22:14;;;;;;;;;;;10.20;99.90;;;;;;8359868;28;20404;-71
2023/03/12 21:26:17;;;;;;;;;;;10.20;99.90;;;;;;8359238;28;19929;-71
2023/03/12 21:30:18;;;;;;;;;;;10.20;99.90;;;;;;8355852;28;19925;-72
2023/03/12 21:34:20;;;;;;;;;;;10.10;99.90;;;;;;8356940;28;19936;-71
2023/03/12 21:38:22;;;;;;;;;;;10.10;99.90;;;;;;8356555;28;19936;-71
2023/03/12 21:42:24;;;;;;;;;;;10.10;99.90;;;;;;8356053;28;19928;-71
2023/03/12 21:46:26;;;;;;;;;;;10.10;99.90;;;;;;8357894;28;19929;-71
2023/03/12 21:50:28;;;;;;;;;;;10.10;99.90;;;;;;8355080;28;19971;-71
2023/03/12 21:54:33;;;;;;;;;;;10.10;99.90;;;;;;8357059;28;20512;-71
2023/03/12 22:04:04;;;;;;;;;;;10.00;99.90;;;;;;8376091;28;19954;-71
2023/03/12 22:08:06;;;;;;;;;;;10.00;99.90;;;;;;8381445;28;19924;-71
2023/03/12 22:12:07;;;;;;;;;;;9.90;99.90;;;;;;8383874;28;20366;-71
2023/03/12 22:16:10;;;;;;;;;;;9.90;99.90;;;;;;8392489;28;19932;-71
2023/03/12 22:20:12;;;;;;;;;;;9.90;99.90;;;;;;8380261;28;19931;-72
2023/03/12 22:24:13;;;;;;;;;;;9.90;99.90;;;;;;8384699;28;20303;-71
2023/03/12 22:28:17;;;;;;;;;;;9.90;99.90;;;;;;8371536;28;21444;-72
2023/03/12 22:32:19;;;;;;;;;;;9.90;99.90;;;;;;8381065;28;20416;-71
2023/03/12 22:36:20;;;;;;;;;;;9.90;99.90;;;;;;8381111;28;19929;-71
2023/03/12 22:40:22;;;;;;;;;;;9.90;99.90;;;;;;8379925;28;19924;-71
2023/03/12 22:44:24;;;;;;;;;;;9.90;99.90;;;;;;8382856;28;19928;-72
2023/03/12 22:48:25;;;;;;;;;;;9.90;99.90;;;;;;8388706;28;19925;-72
2023/03/12 22:52:27;;;;;;;;;;;9.90;99.90;;;;;;8380423;28;19925;-71
2023/03/12 22:56:29;;;;;;;;;;;9.90;99.90;;;;;;8395894;28;19924;-71
2023/03/12 23:00:30;;;;;;;;;;;9.90;99.90;;;;;;8384782;28;19928;-71
2023/03/12 23:04:32;;;;;;;;;;;9.80;99.90;;;;;;8387255;28;19924;-71
2023/03/12 23:08:33;;;;;;;;;;;9.80;99.90;;;;;;8386576;28;20299;-72
2023/03/12 23:12:35;;;;;;;;;;;9.80;99.90;;;;;;8386818;28;19928;-71
2023/03/12 23:16:37;;;;;;;;;;;9.70;99.90;;;;;;8389817;28;19932;-71
2023/03/12 23:20:38;;;;;;;;;;;9.70;99.90;;;;;;8376614;28;19924;-72
2023/03/12 23:24:40;;;;;;;;;;;9.70;99.90;;;;;;8384998;28;19935;-71
2023/03/12 23:28:42;;;;;;;;;;;9.70;99.90;;;;;;8387662;28;20402;-71
2023/03/12 23:32:43;;;;;;;;;;;9.60;99.90;;;;;;8376837;28;19952;-71
2023/03/12 23:36:45;;;;;;;;;;;9.60;99.90;;;;;;8372554;28;19932;-71
2023/03/12 23:40:47;;;;;;;;;;;9.60;99.90;;;;;;8360451;28;19960;-71
2023/03/12 23:44:48;;;;;;;;;;;9.50;99.90;;;;;;8359060;28;19950;-71
2023/03/12 23:48:50;;;;;;;;;;;9.50;99.90;;;;;;8380808;28;20022;-71
2023/03/12 23:52:52;;;;;;;;;;;9.50;99.90;;;;;;8379858;28;19970;-71
2023/03/12 23:56:55;;;;;;;;;;;9.60;99.90;;;;;;8382066;28;19969;-71
